sensor_id;sensor_type;location;lat;lon;timestamp;temperature;humidity
33011;DHT22;19370;48.562;9.196;2022-08-20T00:02:15;18.00;99.90
33011;DHT22;19370;48.562;9.196;2022-08-20T00:05:01;18.00;99.90
33011;DHT22;19370;48.562;9.196;2022-08-20T00:07:50;17.90;99.90
33011;DHT22;19370;48.562;9.196;2022-08-20T00:10:42;17.90;99.90
33011;DHT22;19370;48.562;9.196;2022-08-20T00:13:35;17.90;99.90
33011;DHT22;19370;48.562;9.196;2022-08-20T00:16:24;18.00;99.90
33011;DHT22;19370;48.562;9.196;2022-08-20T00:19:12;18.00;99.90
33011;DHT22;19370;48.562;9.196;2022-08-20T00:21:58;18.00;99.90
33011;DHT22;19370;48.562;9.196;2022-08-20T00:24:44;18.00;99.90
33011;DHT22;19370;48.562;9.196;2022-08-20T00:27:30;18.00;99.90
33011;DHT22;19370;48.562;9.196;2022-08-20T00:30:17;18.00;99.90
33011;DHT22;19370;48.562;9.196;2022-08-20T00:33:13;17.80;99.90
33011;DHT22;19370;48.562;9.196;2022-08-20T00:35:59;17.90;99.90
33011;DHT22;19370;48.562;9.196;2022-08-20T00:38:51;17.90;99.90
33011;DHT22;19370;48.562;9.196;2022-08-20T00:41:37;17.80;99.90
33011;DHT22;19370;48.562;9.196;2022-08-20T00:44:24;17.70;99.90
33011;DHT22;19370;48.562;9.196;2022-08-20T00:47:10;17.80;99.90
33011;DHT22;19370;48.562;9.196;2022-08-20T00:49:56;17.80;99.90
33011;DHT22;19370;48.562;9.196;2022-08-20T00:52:44;17.70;99.90
33011;DHT22;19370;48.562;9.196;2022-08-20T00:55:31;17.80;99.90
33011;DHT22;19370;48.562;9.196;2022-08-20T00:58:18;17.70;99.90
33011;DHT22;19370;48.562;9.196;2022-08-20T01:01:05;17.70;99.90
33011;DHT22;19370;48.562;9.196;2022-08-20T01:03:52;17.80;99.90
33011;DHT22;19370;48.562;9.196;2022-08-20T01:06:41;17.80;99.90
33011;DHT22;19370;48.562;9.196;2022-08-20T01:09:27;17.80;99.90
33011;DHT22;19370;48.562;9.196;2022-08-20T01:12:14;17.80;99.90
33011;DHT22;19370;48.562;9.196;2022-08-20T01:15:03;17.80;99.90
33011;DHT22;19370;48.562;9.196;2022-08-20T01:17:52;17.80;99.90
33011;DHT22;19370;48.562;9.196;2022-08-20T01:20:44;17.70;99.90
33011;DHT22;19370;48.562;9.196;2022-08-20T01:26:38;17.60;99.90
33011;DHT22;19370;48.562;9.196;2022-08-20T01:29:28;17.70;99.90
33011;DHT22;19370;48.562;9.196;2022-08-20T01:32:15;17.70;99.90
33011;DHT22;19370;48.562;9.196;2022-08-20T01:35:01;17.70;99.90
33011;DHT22;19370;48.562;9.196;2022-08-20T01:37:47;17.70;99.90
33011;DHT22;19370;48.562;9.196;2022-08-20T01:43:40;17.70;99.90
33011;DHT22;19370;48.562;9.196;2022-08-20T01:46:31;17.60;99.90
33011;DHT22;19370;48.562;9.196;2022-08-20T01:49:20;17.60;99.90
33011;DHT22;19370;48.562;9.196;2022-08-20T01:52:07;17.60;99.90
33011;DHT22;19370;48.562;9.196;2022-08-20T01:54:54;17.60;99.90
33011;DHT22;19370;48.562;9.196;2022-08-20T01:57:41;17.60;99.90
33011;DHT22;19370;48.562;9.196;2022-08-20T02:00:27;17.50;99.90
33011;DHT22;19370;48.562;9.196;2022-08-20T02:03:13;17.50;99.90
33011;DHT22;19370;48.562;9.196;2022-08-20T02:06:00;17.50;99.90
33011;DHT22;19370;48.562;9.196;2022-08-20T02:08:46;17.50;99.90
33011;DHT22;19370;48.562;9.196;2022-08-20T02:11:32;17.50;99.90
33011;DHT22;19370;48.562;9.196;2022-08-20T02:14:19;17.30;99.90
33011;DHT22;19370;48.562;9.196;2022-08-20T02:17:05;17.30;99.90
33011;DHT22;19370;48.562;9.196;2022-08-20T02:19:59;17.40;99.90
33011;DHT22;19370;48.562;9.196;2022-08-20T02:22:50;17.40;99.90
33011;DHT22;19370;48.562;9.196;2022-08-20T02:25:38;17.40;99.90
33011;DHT22;19370;48.562;9.196;2022-08-20T02:28:25;17.40;99.90
33011;DHT22;19370;48.562;9.196;2022-08-20T02:31:12;17.30;99.90
33011;DHT22;19370;48.562;9.196;2022-08-20T02:33:58;17.30;99.90
33011;DHT22;19370;48.562;9.196;2022-08-20T02:36:44;17.30;99.90
33011;DHT22;19370;48.562;9.196;2022-08-20T02:39:31;17.30;99.90
33011;DHT22;19370;48.562;9.196;2022-08-20T02:42:17;17.30;99.90
33011;DHT22;19370;48.562;9.196;2022-08-20T02:45:06;17.40;99.90
33011;DHT22;19370;48.562;9.196;2022-08-20T02:47:52;17.40;99.90
33011;DHT22;19370;48.562;9.196;2022-08-20T02:50:42;17.40;99.90
33011;DHT22;19370;48.562;9.196;2022-08-20T02:53:31;17.40;99.90
33011;DHT22;19370;48.562;9.196;2022-08-20T02:56:18;17.40;99.90
33011;DHT22;19370;48.562;9.196;2022-08-20T02:59:05;17.50;99.90
33011;DHT22;19370;48.562;9.196;2022-08-20T03:01:51;17.50;99.90
33011;DHT22;19370;48.562;9.196;2022-08-20T03:04:37;17.40;99.90
33011;DHT22;19370;48.562;9.196;2022-08-20T03:07:23;17.50;99.90
33011;DHT22;19370;48.562;9.196;2022-08-20T03:10:09;17.30;99.90
33011;DHT22;19370;48.562;9.196;2022-08-20T03:12:56;17.30;99.90
33011;DHT22;19370;48.562;9.196;2022-08-20T03:15:45;17.30;99.90
33011;DHT22;19370;48.562;9.196;2022-08-20T03:18:35;17.30;99.90
33011;DHT22;19370;48.562;9.196;2022-08-20T03:21:21;17.20;99.90
33011;DHT22;19370;48.562;9.196;2022-08-20T03:24:08;17.10;99.90
33011;DHT22;19370;48.562;9.196;2022-08-20T03:26:54;17.20;99.90
33011;DHT22;19370;48.562;9.196;2022-08-20T03:29:39;17.20;99.90
33011;DHT22;19370;48.562;9.196;2022-08-20T03:32:25;17.20;99.90
33011;DHT22;19370;48.562;9.196;2022-08-20T03:35:13;17.30;99.90
33011;DHT22;19370;48.562;9.196;2022-08-20T03:37:59;17.10;99.90
33011;DHT22;19370;48.562;9.196;2022-08-20T03:40:47;17.10;99.90
33011;DHT22;19370;48.562;9.196;2022-08-20T03:43:33;17.10;99.90
33011;DHT22;19370;48.562;9.196;2022-08-20T03:46:20;17.10;99.90
33011;DHT22;19370;48.562;9.196;2022-08-20T03:49:06;17.10;99.90
33011;DHT22;19370;48.562;9.196;2022-08-20T03:51:52;17.10;99.90
33011;DHT22;19370;48.562;9.196;2022-08-20T03:54:38;17.10;99.90
33011;DHT22;19370;48.562;9.196;2022-08-20T03:57:25;17.10;99.90
33011;DHT22;19370;48.562;9.196;2022-08-20T04:00:13;17.10;99.90
33011;DHT22;19370;48.562;9.196;2022-08-20T04:03:00;17.00;99.90
33011;DHT22;19370;48.562;9.196;2022-08-20T04:05:46;17.00;99.90
33011;DHT22;19370;48.562;9.196;2022-08-20T04:08:32;17.10;99.90
33011;DHT22;19370;48.562;9.196;2022-08-20T04:11:19;17.10;99.90
33011;DHT22;19370;48.562;9.196;2022-08-20T04:14:05;17.20;99.90
33011;DHT22;19370;48.562;9.196;2022-08-20T04:16:50;17.20;99.90
33011;DHT22;19370;48.562;9.196;2022-08-20T04:19:37;17.20;99.90
33011;DHT22;19370;48.562;9.196;2022-08-20T04:22:23;17.30;99.90
33011;DHT22;19370;48.562;9.196;2022-08-20T04:25:09;17.20;99.90
33011;DHT22;19370;48.562;9.196;2022-08-20T04:27:57;17.10;99.90
33011;DHT22;19370;48.562;9.196;2022-08-20T04:30:43;17.10;99.90
33011;DHT22;19370;48.562;9.196;2022-08-20T04:33:29;17.10;99.90
33011;DHT22;19370;48.562;9.196;2022-08-20T04:36:15;17.10;99.90
33011;DHT22;19370;48.562;9.196;2022-08-20T04:39:01;17.20;99.90
33011;DHT22;19370;48.562;9.196;2022-08-20T04:41:47;17.10;99.90
33011;DHT22;19370;48.562;9.196;2022-08-20T04:44:33;17.10;99.90
33011;DHT22;19370;48.562;9.196;2022-08-20T04:47:19;17.20;99.90
33011;DHT22;19370;48.562;9.196;2022-08-20T04:50:10;17.10;99.90
33011;DHT22;19370;48.562;9.196;2022-08-20T04:52:57;17.20;99.90
33011;DHT22;19370;48.562;9.196;2022-08-20T04:55:45;17.20;99.90
33011;DHT22;19370;48.562;9.196;2022-08-20T04:58:34;17.20;99.90
33011;DHT22;19370;48.562;9.196;2022-08-20T05:01:20;17.20;99.90
33011;DHT22;19370;48.562;9.196;2022-08-20T05:04:08;17.20;99.90
33011;DHT22;19370;48.562;9.196;2022-08-20T05:06:54;17.30;99.90
33011;DHT22;19370;48.562;9.196;2022-08-20T05:09:41;17.40;99.90
33011;DHT22;19370;48.562;9.196;2022-08-20T05:12:27;17.40;99.90
33011;DHT22;19370;48.562;9.196;2022-08-20T05:15:13;17.50;99.90
33011;DHT22;19370;48.562;9.196;2022-08-20T05:18:00;17.50;99.90
33011;DHT22;19370;48.562;9.196;2022-08-20T05:20:48;17.40;99.90
33011;DHT22;19370;48.562;9.196;2022-08-20T05:23:36;17.40;99.90
33011;DHT22;19370;48.562;9.196;2022-08-20T05:26:37;17.30;99.90
33011;DHT22;19370;48.562;9.196;2022-08-20T05:29:23;17.30;99.90
33011;DHT22;19370;48.562;9.196;2022-08-20T05:32:10;17.40;99.90
33011;DHT22;19370;48.562;9.196;2022-08-20T05:34:57;17.40;99.90
33011;DHT22;19370;48.562;9.196;2022-08-20T05:37:42;17.40;99.90
33011;DHT22;19370;48.562;9.196;2022-08-20T05:40:30;17.30;99.90
33011;DHT22;19370;48.562;9.196;2022-08-20T05:43:20;17.30;99.90
33011;DHT22;19370;48.562;9.196;2022-08-20T05:46:06;17.30;99.90
33011;DHT22;19370;48.562;9.196;2022-08-20T05:48:52;17.30;99.90
33011;DHT22;19370;48.562;9.196;2022-08-20T05:51:38;17.30;99.90
33011;DHT22;19370;48.562;9.196;2022-08-20T05:54:24;17.40;99.90
33011;DHT22;19370;48.562;9.196;2022-08-20T05:57:10;17.40;99.90
33011;DHT22;19370;48.562;9.196;2022-08-20T05:59:58;17.40;99.90
33011;DHT22;19370;48.562;9.196;2022-08-20T06:02:44;17.40;99.90
33011;DHT22;19370;48.562;9.196;2022-08-20T06:05:49;17.30;99.90
33011;DHT22;19370;48.562;9.196;2022-08-20T06:08:35;17.40;99.90
33011;DHT22;19370;48.562;9.196;2022-08-20T06:11:21;17.40;99.90
33011;DHT22;19370;48.562;9.196;2022-08-20T06:14:07;17.60;99.90
33011;DHT22;19370;48.562;9.196;2022-08-20T06:16:53;17.50;99.90
33011;DHT22;19370;48.562;9.196;2022-08-20T06:19:40;17.60;99.90
33011;DHT22;19370;48.562;9.196;2022-08-20T06:22:26;17.60;99.90
33011;DHT22;19370;48.562;9.196;2022-08-20T06:25:12;17.70;99.90
33011;DHT22;19370;48.562;9.196;2022-08-20T06:27:58;17.70;99.90
33011;DHT22;19370;48.562;9.196;2022-08-20T06:30:44;17.80;99.90
33011;DHT22;19370;48.562;9.196;2022-08-20T06:33:30;17.80;99.90
33011;DHT22;19370;48.562;9.196;2022-08-20T06:36:16;17.90;99.90
33011;DHT22;19370;48.562;9.196;2022-08-20T06:39:02;18.00;99.90
33011;DHT22;19370;48.562;9.196;2022-08-20T06:41:49;18.10;99.90
33011;DHT22;19370;48.562;9.196;2022-08-20T06:44:36;18.20;99.90
33011;DHT22;19370;48.562;9.196;2022-08-20T06:47:22;18.10;99.90
33011;DHT22;19370;48.562;9.196;2022-08-20T06:50:13;18.20;99.90
33011;DHT22;19370;48.562;9.196;2022-08-20T06:52:59;18.40;99.90
33011;DHT22;19370;48.562;9.196;2022-08-20T06:55:49;18.50;99.90
33011;DHT22;19370;48.562;9.196;2022-08-20T06:58:36;18.50;99.90
33011;DHT22;19370;48.562;9.196;2022-08-20T07:01:22;18.50;99.90
33011;DHT22;19370;48.562;9.196;2022-08-20T07:04:08;18.50;99.90
33011;DHT22;19370;48.562;9.196;2022-08-20T07:06:55;18.50;99.90
33011;DHT22;19370;48.562;9.196;2022-08-20T07:09:42;18.40;99.90
33011;DHT22;19370;48.562;9.196;2022-08-20T07:12:28;18.40;99.90
33011;DHT22;19370;48.562;9.196;2022-08-20T07:15:15;18.50;99.90
33011;DHT22;19370;48.562;9.196;2022-08-20T07:18:03;18.50;99.90
33011;DHT22;19370;48.562;9.196;2022-08-20T07:20:49;18.60;99.90
33011;DHT22;19370;48.562;9.196;2022-08-20T07:23:35;18.70;99.90
33011;DHT22;19370;48.562;9.196;2022-08-20T07:26:21;18.70;99.90
33011;DHT22;19370;48.562;9.196;2022-08-20T07:29:07;18.60;99.90
33011;DHT22;19370;48.562;9.196;2022-08-20T07:31:53;18.70;99.90
33011;DHT22;19370;48.562;9.196;2022-08-20T07:34:58;18.70;99.90
33011;DHT22;19370;48.562;9.196;2022-08-20T07:37:47;18.80;99.90
33011;DHT22;19370;48.562;9.196;2022-08-20T07:40:34;18.80;99.90
33011;DHT22;19370;48.562;9.196;2022-08-20T07:43:20;18.80;99.90
33011;DHT22;19370;48.562;9.196;2022-08-20T07:46:10;18.80;99.90
33011;DHT22;19370;48.562;9.196;2022-08-20T07:48:56;18.80;99.90
33011;DHT22;19370;48.562;9.196;2022-08-20T07:51:42;18.90;99.90
33011;DHT22;19370;48.562;9.196;2022-08-20T07:54:28;18.90;99.90
33011;DHT22;19370;48.562;9.196;2022-08-20T07:57:14;19.00;99.90
33011;DHT22;19370;48.562;9.196;2022-08-20T08:00:04;19.20;99.90
33011;DHT22;19370;48.562;9.196;2022-08-20T08:02:51;19.20;99.90
33011;DHT22;19370;48.562;9.196;2022-08-20T08:05:39;19.20;99.90
33011;DHT22;19370;48.562;9.196;2022-08-20T08:08:28;19.20;99.90
33011;DHT22;19370;48.562;9.196;2022-08-20T08:11:14;19.20;99.90
33011;DHT22;19370;48.562;9.196;2022-08-20T08:14:03;19.40;99.90
33011;DHT22;19370;48.562;9.196;2022-08-20T08:16:56;19.60;99.90
33011;DHT22;19370;48.562;9.196;2022-08-20T08:19:47;19.80;99.90
33011;DHT22;19370;48.562;9.196;2022-08-20T08:22:34;19.90;99.90
33011;DHT22;19370;48.562;9.196;2022-08-20T08:25:20;19.90;99.90
33011;DHT22;19370;48.562;9.196;2022-08-20T08:28:07;20.00;99.90
33011;DHT22;19370;48.562;9.196;2022-08-20T08:30:55;20.20;99.90
33011;DHT22;19370;48.562;9.196;2022-08-20T08:33:42;20.50;99.90
33011;DHT22;19370;48.562;9.196;2022-08-20T08:36:28;20.60;99.90
33011;DHT22;19370;48.562;9.196;2022-08-20T08:39:14;20.40;99.90
33011;DHT22;19370;48.562;9.196;2022-08-20T08:42:01;20.40;99.90
33011;DHT22;19370;48.562;9.196;2022-08-20T08:44:49;20.90;99.90
33011;DHT22;19370;48.562;9.196;2022-08-20T08:47:37;20.80;99.90
33011;DHT22;19370;48.562;9.196;2022-08-20T08:50:27;20.90;99.90
33011;DHT22;19370;48.562;9.196;2022-08-20T08:53:26;20.70;99.90
33011;DHT22;19370;48.562;9.196;2022-08-20T08:56:15;20.90;99.90
33011;DHT22;19370;48.562;9.196;2022-08-20T08:59:04;20.70;99.90
33011;DHT22;19370;48.562;9.196;2022-08-20T09:01:53;20.60;99.90
33011;DHT22;19370;48.562;9.196;2022-08-20T09:04:39;20.80;99.90
33011;DHT22;19370;48.562;9.196;2022-08-20T09:07:29;20.80;99.90
33011;DHT22;19370;48.562;9.196;2022-08-20T09:10:16;20.50;99.90
33011;DHT22;19370;48.562;9.196;2022-08-20T09:13:05;20.40;99.90
33011;DHT22;19370;48.562;9.196;2022-08-20T09:15:51;20.50;99.90
33011;DHT22;19370;48.562;9.196;2022-08-20T09:18:38;20.70;99.90
33011;DHT22;19370;48.562;9.196;2022-08-20T09:21:24;21.20;99.90
33011;DHT22;19370;48.562;9.196;2022-08-20T09:24:09;21.40;99.90
33011;DHT22;19370;48.562;9.196;2022-08-20T09:26:55;21.60;99.90
33011;DHT22;19370;48.562;9.196;2022-08-20T09:29:42;21.70;99.90
33011;DHT22;19370;48.562;9.196;2022-08-20T09:32:28;21.70;99.90
33011;DHT22;19370;48.562;9.196;2022-08-20T09:35:14;21.50;99.90
33011;DHT22;19370;48.562;9.196;2022-08-20T09:38:00;21.50;99.90
33011;DHT22;19370;48.562;9.196;2022-08-20T09:40:46;21.70;99.90
33011;DHT22;19370;48.562;9.196;2022-08-20T09:43:32;21.90;99.90
33011;DHT22;19370;48.562;9.196;2022-08-20T09:46:18;21.90;99.90
33011;DHT22;19370;48.562;9.196;2022-08-20T09:49:04;22.30;99.90
33011;DHT22;19370;48.562;9.196;2022-08-20T09:51:50;22.50;99.90
33011;DHT22;19370;48.562;9.196;2022-08-20T09:54:38;22.90;99.90
33011;DHT22;19370;48.562;9.196;2022-08-20T09:57:25;23.50;99.90
33011;DHT22;19370;48.562;9.196;2022-08-20T10:00:12;23.50;99.90
33011;DHT22;19370;48.562;9.196;2022-08-20T10:02:58;24.10;99.90
33011;DHT22;19370;48.562;9.196;2022-08-20T10:05:46;24.50;99.90
33011;DHT22;19370;48.562;9.196;2022-08-20T10:08:32;24.60;99.90
33011;DHT22;19370;48.562;9.196;2022-08-20T10:11:18;24.90;99.90
33011;DHT22;19370;48.562;9.196;2022-08-20T10:14:04;25.20;99.90
33011;DHT22;19370;48.562;9.196;2022-08-20T10:16:57;25.40;99.90
33011;DHT22;19370;48.562;9.196;2022-08-20T10:19:43;24.30;99.90
33011;DHT22;19370;48.562;9.196;2022-08-20T10:22:29;23.60;99.90
33011;DHT22;19370;48.562;9.196;2022-08-20T10:25:17;23.30;99.90
33011;DHT22;19370;48.562;9.196;2022-08-20T10:28:04;23.10;99.90
33011;DHT22;19370;48.562;9.196;2022-08-20T10:30:51;22.50;99.90
33011;DHT22;19370;48.562;9.196;2022-08-20T10:33:38;21.90;99.90
33011;DHT22;19370;48.562;9.196;2022-08-20T10:36:24;21.80;99.90
33011;DHT22;19370;48.562;9.196;2022-08-20T10:39:10;21.70;99.90
33011;DHT22;19370;48.562;9.196;2022-08-20T10:41:56;21.60;99.90
33011;DHT22;19370;48.562;9.196;2022-08-20T10:44:42;21.60;99.90
33011;DHT22;19370;48.562;9.196;2022-08-20T10:47:31;21.30;99.90
33011;DHT22;19370;48.562;9.196;2022-08-20T10:50:17;20.60;99.90
33011;DHT22;19370;48.562;9.196;2022-08-20T10:53:04;20.30;99.90
33011;DHT22;19370;48.562;9.196;2022-08-20T10:55:52;20.20;99.90
33011;DHT22;19370;48.562;9.196;2022-08-20T10:58:39;19.90;99.90
33011;DHT22;19370;48.562;9.196;2022-08-20T11:01:25;19.90;99.90
33011;DHT22;19370;48.562;9.196;2022-08-20T11:04:11;19.80;99.90
33011;DHT22;19370;48.562;9.196;2022-08-20T11:06:57;19.70;99.90
33011;DHT22;19370;48.562;9.196;2022-08-20T11:09:44;19.60;99.90
33011;DHT22;19370;48.562;9.196;2022-08-20T11:12:31;19.20;99.90
33011;DHT22;19370;48.562;9.196;2022-08-20T11:15:17;18.90;99.90
33011;DHT22;19370;48.562;9.196;2022-08-20T11:18:04;18.60;99.90
33011;DHT22;19370;48.562;9.196;2022-08-20T11:20:50;18.40;99.90
33011;DHT22;19370;48.562;9.196;2022-08-20T11:23:37;18.30;99.90
33011;DHT22;19370;48.562;9.196;2022-08-20T11:26:24;18.30;99.90
33011;DHT22;19370;48.562;9.196;2022-08-20T11:29:10;18.20;99.90
33011;DHT22;19370;48.562;9.196;2022-08-20T11:31:56;18.10;99.90
33011;DHT22;19370;48.562;9.196;2022-08-20T11:34:42;18.10;99.90
33011;DHT22;19370;48.562;9.196;2022-08-20T11:37:28;18.20;99.90
33011;DHT22;19370;48.562;9.196;2022-08-20T11:40:13;18.20;99.90
33011;DHT22;19370;48.562;9.196;2022-08-20T11:43:00;18.30;99.90
33011;DHT22;19370;48.562;9.196;2022-08-20T11:45:49;18.40;99.90
33011;DHT22;19370;48.562;9.196;2022-08-20T11:48:35;18.30;99.90
33011;DHT22;19370;48.562;9.196;2022-08-20T11:51:21;18.20;99.90
33011;DHT22;19370;48.562;9.196;2022-08-20T11:54:07;18.20;99.90
33011;DHT22;19370;48.562;9.196;2022-08-20T11:56:54;18.20;99.90
33011;DHT22;19370;48.562;9.196;2022-08-20T11:59:48;18.10;99.90
33011;DHT22;19370;48.562;9.196;2022-08-20T12:02:34;18.20;99.90
33011;DHT22;19370;48.562;9.196;2022-08-20T12:05:20;18.20;99.90
33011;DHT22;19370;48.562;9.196;2022-08-20T12:08:06;18.10;99.90
33011;DHT22;19370;48.562;9.196;2022-08-20T12:10:53;18.10;99.90
33011;DHT22;19370;48.562;9.196;2022-08-20T12:13:39;18.20;99.90
33011;DHT22;19370;48.562;9.196;2022-08-20T12:16:25;18.40;99.90
33011;DHT22;19370;48.562;9.196;2022-08-20T12:19:11;18.40;99.90
33011;DHT22;19370;48.562;9.196;2022-08-20T12:21:57;18.50;99.90
33011;DHT22;19370;48.562;9.196;2022-08-20T12:24:44;18.70;99.90
33011;DHT22;19370;48.562;9.196;2022-08-20T12:27:31;18.70;99.90
33011;DHT22;19370;48.562;9.196;2022-08-20T12:30:20;18.90;99.90
33011;DHT22;19370;48.562;9.196;2022-08-20T12:33:07;19.00;99.90
33011;DHT22;19370;48.562;9.196;2022-08-20T12:35:53;19.10;99.90
33011;DHT22;19370;48.562;9.196;2022-08-20T12:38:39;19.10;99.90
33011;DHT22;19370;48.562;9.196;2022-08-20T12:41:25;19.10;99.90
33011;DHT22;19370;48.562;9.196;2022-08-20T12:44:11;19.20;99.90
33011;DHT22;19370;48.562;9.196;2022-08-20T12:47:11;19.20;99.90
33011;DHT22;19370;48.562;9.196;2022-08-20T12:50:00;19.30;99.90
33011;DHT22;19370;48.562;9.196;2022-08-20T12:52:47;19.50;99.90
33011;DHT22;19370;48.562;9.196;2022-08-20T12:55:33;19.50;99.90
33011;DHT22;19370;48.562;9.196;2022-08-20T12:58:20;19.70;99.90
33011;DHT22;19370;48.562;9.196;2022-08-20T13:01:06;19.80;99.90
33011;DHT22;19370;48.562;9.196;2022-08-20T13:03:52;19.70;99.90
33011;DHT22;19370;48.562;9.196;2022-08-20T13:06:38;19.80;99.90
33011;DHT22;19370;48.562;9.196;2022-08-20T13:09:24;20.00;99.90
33011;DHT22;19370;48.562;9.196;2022-08-20T13:12:10;20.10;99.90
33011;DHT22;19370;48.562;9.196;2022-08-20T13:14:56;20.10;99.90
33011;DHT22;19370;48.562;9.196;2022-08-20T13:17:42;20.20;99.90
33011;DHT22;19370;48.562;9.196;2022-08-20T13:20:29;20.30;99.90
33011;DHT22;19370;48.562;9.196;2022-08-20T13:23:16;20.50;99.90
33011;DHT22;19370;48.562;9.196;2022-08-20T13:26:02;20.80;99.90
33011;DHT22;19370;48.562;9.196;2022-08-20T13:28:49;21.00;99.90
33011;DHT22;19370;48.562;9.196;2022-08-20T13:31:35;21.00;99.90
33011;DHT22;19370;48.562;9.196;2022-08-20T13:34:21;21.20;99.90
33011;DHT22;19370;48.562;9.196;2022-08-20T13:39:59;21.90;99.90
33011;DHT22;19370;48.562;9.196;2022-08-20T13:42:45;21.50;99.90
33011;DHT22;19370;48.562;9.196;2022-08-20T13:45:31;21.70;99.90
33011;DHT22;19370;48.562;9.196;2022-08-20T13:48:17;21.80;99.90
33011;DHT22;19370;48.562;9.196;2022-08-20T13:51:03;22.30;99.90
33011;DHT22;19370;48.562;9.196;2022-08-20T13:53:49;22.80;99.90
33011;DHT22;19370;48.562;9.196;2022-08-20T13:56:35;24.10;99.90
33011;DHT22;19370;48.562;9.196;2022-08-20T13:59:21;25.30;99.90
33011;DHT22;19370;48.562;9.196;2022-08-20T14:02:08;25.50;99.90
33011;DHT22;19370;48.562;9.196;2022-08-20T14:04:54;25.10;99.90
33011;DHT22;19370;48.562;9.196;2022-08-20T14:07:41;24.80;99.90
33011;DHT22;19370;48.562;9.196;2022-08-20T14:10:27;24.60;99.90
33011;DHT22;19370;48.562;9.196;2022-08-20T14:13:19;24.10;99.90
33011;DHT22;19370;48.562;9.196;2022-08-20T14:16:06;23.70;99.90
33011;DHT22;19370;48.562;9.196;2022-08-20T14:18:52;23.60;99.90
33011;DHT22;19370;48.562;9.196;2022-08-20T14:21:39;24.10;99.90
33011;DHT22;19370;48.562;9.196;2022-08-20T14:24:25;24.20;99.90
33011;DHT22;19370;48.562;9.196;2022-08-20T14:27:13;24.00;99.90
33011;DHT22;19370;48.562;9.196;2022-08-20T14:30:00;24.20;99.90
33011;DHT22;19370;48.562;9.196;2022-08-20T14:32:47;24.60;99.90
33011;DHT22;19370;48.562;9.196;2022-08-20T14:35:33;24.90;99.90
33011;DHT22;19370;48.562;9.196;2022-08-20T14:38:19;25.20;99.90
33011;DHT22;19370;48.562;9.196;2022-08-20T14:41:05;24.80;99.90
33011;DHT22;19370;48.562;9.196;2022-08-20T14:43:51;24.40;99.90
33011;DHT22;19370;48.562;9.196;2022-08-20T14:46:37;23.90;99.90
33011;DHT22;19370;48.562;9.196;2022-08-20T14:49:23;23.40;99.90
33011;DHT22;19370;48.562;9.196;2022-08-20T14:52:10;23.10;99.90
33011;DHT22;19370;48.562;9.196;2022-08-20T14:54:56;22.80;99.90
33011;DHT22;19370;48.562;9.196;2022-08-20T14:57:43;22.80;99.90
33011;DHT22;19370;48.562;9.196;2022-08-20T15:00:30;22.80;99.90
33011;DHT22;19370;48.562;9.196;2022-08-20T15:03:18;22.70;99.90
33011;DHT22;19370;48.562;9.196;2022-08-20T15:06:10;22.70;99.90
33011;DHT22;19370;48.562;9.196;2022-08-20T15:08:59;22.70;99.90
33011;DHT22;19370;48.562;9.196;2022-08-20T15:11:45;22.40;99.90
33011;DHT22;19370;48.562;9.196;2022-08-20T15:14:32;22.30;99.90
33011;DHT22;19370;48.562;9.196;2022-08-20T15:17:19;22.20;99.90
33011;DHT22;19370;48.562;9.196;2022-08-20T15:20:07;22.60;99.90
33011;DHT22;19370;48.562;9.196;2022-08-20T15:22:56;24.10;99.90
33011;DHT22;19370;48.562;9.196;2022-08-20T15:25:42;25.80;99.90
33011;DHT22;19370;48.562;9.196;2022-08-20T15:28:28;27.20;99.90
33011;DHT22;19370;48.562;9.196;2022-08-20T15:31:14;27.90;99.90
33011;DHT22;19370;48.562;9.196;2022-08-20T15:34:00;28.30;99.90
33011;DHT22;19370;48.562;9.196;2022-08-20T15:36:46;28.90;99.10
33011;DHT22;19370;48.562;9.196;2022-08-20T15:39:32;29.20;97.80
33011;DHT22;19370;48.562;9.196;2022-08-20T15:42:20;28.10;98.90
33011;DHT22;19370;48.562;9.196;2022-08-20T15:45:07;27.90;99.90
33011;DHT22;19370;48.562;9.196;2022-08-20T15:48:11;28.50;98.10
33011;DHT22;19370;48.562;9.196;2022-08-20T15:54:12;30.30;94.80
33011;DHT22;19370;48.562;9.196;2022-08-20T16:00:25;30.00;93.90
33011;DHT22;19370;48.562;9.196;2022-08-20T16:14:33;31.30;90.50
33011;DHT22;19370;48.562;9.196;2022-08-20T16:17:40;30.60;89.80
33011;DHT22;19370;48.562;9.196;2022-08-20T16:20:56;30.20;90.60
33011;DHT22;19370;48.562;9.196;2022-08-20T16:23:43;30.80;90.00
33011;DHT22;19370;48.562;9.196;2022-08-20T16:29:55;31.70;85.80
33011;DHT22;19370;48.562;9.196;2022-08-20T16:32:45;32.20;84.60
33011;DHT22;19370;48.562;9.196;2022-08-20T16:35:46;32.30;81.70
33011;DHT22;19370;48.562;9.196;2022-08-20T16:38:39;32.70;81.20
33011;DHT22;19370;48.562;9.196;2022-08-20T16:41:47;32.50;78.10
33011;DHT22;19370;48.562;9.196;2022-08-20T16:44:38;32.20;79.00
33011;DHT22;19370;48.562;9.196;2022-08-20T16:47:26;32.50;77.70
33011;DHT22;19370;48.562;9.196;2022-08-20T16:50:21;32.80;76.80
33011;DHT22;19370;48.562;9.196;2022-08-20T16:53:17;33.20;76.10
33011;DHT22;19370;48.562;9.196;2022-08-20T16:56:04;32.70;73.60
33011;DHT22;19370;48.562;9.196;2022-08-20T16:58:50;32.90;74.70
33011;DHT22;19370;48.562;9.196;2022-08-20T17:01:37;33.50;72.80
33011;DHT22;19370;48.562;9.196;2022-08-20T17:04:23;33.50;71.70
33011;DHT22;19370;48.562;9.196;2022-08-20T17:07:09;33.30;71.40
33011;DHT22;19370;48.562;9.196;2022-08-20T17:10:15;33.30;72.20
33011;DHT22;19370;48.562;9.196;2022-08-20T17:13:20;33.10;71.40
33011;DHT22;19370;48.562;9.196;2022-08-20T17:19:10;31.50;75.40
33011;DHT22;19370;48.562;9.196;2022-08-20T17:22:09;31.80;75.90
33011;DHT22;19370;48.562;9.196;2022-08-20T17:24:56;31.40;76.30
33011;DHT22;19370;48.562;9.196;2022-08-20T17:27:43;29.70;79.80
33011;DHT22;19370;48.562;9.196;2022-08-20T17:30:37;27.90;85.10
33011;DHT22;19370;48.562;9.196;2022-08-20T17:33:34;26.40;90.60
33011;DHT22;19370;48.562;9.196;2022-08-20T17:36:21;25.40;92.60
33011;DHT22;19370;48.562;9.196;2022-08-20T17:39:16;24.50;95.00
33011;DHT22;19370;48.562;9.196;2022-08-20T17:42:07;23.80;97.60
33011;DHT22;19370;48.562;9.196;2022-08-20T17:45:20;23.30;99.90
33011;DHT22;19370;48.562;9.196;2022-08-20T17:48:12;22.90;99.90
33011;DHT22;19370;48.562;9.196;2022-08-20T17:50:59;22.60;99.90
33011;DHT22;19370;48.562;9.196;2022-08-20T17:53:53;22.30;99.90
33011;DHT22;19370;48.562;9.196;2022-08-20T17:56:42;22.00;99.90
33011;DHT22;19370;48.562;9.196;2022-08-20T17:59:44;21.90;99.90
33011;DHT22;19370;48.562;9.196;2022-08-20T18:02:30;21.70;99.90
33011;DHT22;19370;48.562;9.196;2022-08-20T18:05:19;21.70;99.90
33011;DHT22;19370;48.562;9.196;2022-08-20T18:08:36;21.60;99.90
33011;DHT22;19370;48.562;9.196;2022-08-20T18:17:56;21.30;99.90
33011;DHT22;19370;48.562;9.196;2022-08-20T18:21:15;21.20;99.90